LTAT

Details ICAO LTAT (MLX)
Name ERHAC
Region Turkey
Timezone Europe/Istanbul (UTC+3.0)
Plans Departing 295
Arriving 231
Stats Elevation 2,828 ft / 862 m (AMSL)
Location 38.435300° 38.091000°
Runways 1
Magnetic Variation 6.263° E
Sunrise 2024-07-22 02:22:27 UTC / 2024-07-22 05:22:27 Local
Sunset 2024-07-22 16:47:57 UTC / 2024-07-22 19:47:57 Local
Advertisement - Login to hide

Runways

ID Width Length Bearing (true/mag) Surface Threshold Overrun Markings Lighting
03 148 ft / 45 m 11,000 ft / 3,353 m 31.39° / 25.13° ASPHALT 0 ft / 0 m 868 ft / 265 m APP EDGE THRESHOLD REIL-OMNI
21 148 ft / 45 m 11,000 ft / 3,353 m 211.40° / 205.14° ASPHALT 0 ft / 0 m 895 ft / 273 m APP EDGE THRESHOLD ALSF-I REIL-OMNI

Map

Weather


0- 5 10 15 20 25 30 35+ Temperature / °C

Clouds and Precipitation
Forecast for 2024-04-15 18:00 UTC. Updated 3 months ago

Ground ~20,000 ft ~40,000 ft Winds

METAR

LTAT 212220Z 25007KT CAVOK 26/10 Q1008 NOSIG RMK RWY03 22007KT

TAF

TAF LTAT 211040Z 2112/2212 VRB02KT CAVOK TEMPO 2116/2120 31015KT TEMPO 2121/2201 23012KT

Frequencies

Ground 121.95 MHz
Approach 122.10 MHz
Tower 122.10 MHz
Recorded 128.35 MHz ATIS
Warning: Do not use this data for real-world aviation or navigation. No guarantee of current accuracy is given.